ITY1391 LIRF-LIMJ
Flight info
| Callsign | ITY1391 |
|---|---|
| Flight time | 0h 40m |
| Altitude | 30000 |
| Route | GILIO DCT ELB DCT BETEN M729 IDONA |
| Aircraft | A320/M-SDE3FGHIRWY/LB1 |
Departure
| Time | 2026-05-04 20:57 |
|---|---|
| Airport | Rome–Fiumicino Leonardo da Vinci International Airport (LIRF) |
Arrival
| Time | 2026-05-04 21:38 |
|---|---|
| Airport | Genoa Cristoforo Colombo Airport (LIMJ) |
| Time | Latitude | Longitude | Altitude | Speed | Heading |
|---|---|---|---|---|---|
| 2026-05-04 20:33 | 41.79720 | 12.25479 | 14 ft | 0 kts | 116° |
| 2026-05-04 20:46 | 41.79723 | 12.25469 | 15 ft | 3 kts | 116° |
| 2026-05-04 20:46 | 41.79731 | 12.25449 | 14 ft | 3 kts | 104° |
| 2026-05-04 20:46 | 41.79732 | 12.25424 | 14 ft | 3 kts | 66° |
| 2026-05-04 20:46 | 41.79721 | 12.25403 | 16 ft | 3 kts | 34° |
| 2026-05-04 20:47 | 41.79708 | 12.25392 | 14 ft | 1 kts | 25° |
| 2026-05-04 20:47 | 41.79704 | 12.25390 | 14 ft | 0 kts | 25° |
| 2026-05-04 20:50 | 41.79706 | 12.25391 | 14 ft | 3 kts | 25° |
| 2026-05-04 20:51 | 41.79758 | 12.25424 | 14 ft | 10 kts | 25° |
| 2026-05-04 20:51 | 41.79814 | 12.25460 | 14 ft | 8 kts | 26° |
| 2026-05-04 20:51 | 41.79882 | 12.25504 | 14 ft | 16 kts | 26° |
| 2026-05-04 20:51 | 41.79978 | 12.25561 | 14 ft | 12 kts | 25° |
| 2026-05-04 20:52 | 41.79985 | 12.25655 | 14 ft | 13 kts | 114° |
| 2026-05-04 20:52 | 41.79939 | 12.25783 | 14 ft | 16 kts | 116° |
| 2026-05-04 20:52 | 41.79985 | 12.25892 | 16 ft | 16 kts | 23° |
| 2026-05-04 20:52 | 41.80086 | 12.25954 | 14 ft | 17 kts | 26° |
| 2026-05-04 20:53 | 41.80198 | 12.26026 | 14 ft | 18 kts | 26° |
| 2026-05-04 20:53 | 41.80318 | 12.26097 | 14 ft | 20 kts | 24° |
| 2026-05-04 20:53 | 41.80446 | 12.26170 | 16 ft | 20 kts | 8° |
| 2026-05-04 20:53 | 41.80539 | 12.26279 | 16 ft | 20 kts | 68° |
| 2026-05-04 20:54 | 41.80588 | 12.26458 | 16 ft | 21 kts | 71° |
| 2026-05-04 20:54 | 41.80641 | 12.26650 | 15 ft | 23 kts | 72° |
| 2026-05-04 20:54 | 41.80697 | 12.26855 | 14 ft | 22 kts | 70° |
| 2026-05-04 20:54 | 41.80747 | 12.27017 | 13 ft | 17 kts | 52° |
| 2026-05-04 20:55 | 41.80847 | 12.27024 | 14 ft | 13 kts | 340° |
| 2026-05-04 20:55 | 41.80918 | 12.26989 | 13 ft | 10 kts | 340° |
| 2026-05-04 20:55 | 41.80955 | 12.26923 | 13 ft | 9 kts | 270° |
| 2026-05-04 20:55 | 41.80947 | 12.26886 | 14 ft | 0 kts | 250° |
| 2026-05-04 20:56 | 41.80943 | 12.26871 | 14 ft | 9 kts | 250° |
| 2026-05-04 20:56 | 41.80838 | 12.26494 | 17 ft | 79 kts | 249° |
| 2026-05-04 20:56 | 41.80578 | 12.25551 | 16 ft | 137 kts | 250° |
| 2026-05-04 20:57 | 41.80182 | 12.24142 | 26 ft | 182 kts | 247° |
| 2026-05-04 20:57 | 41.79738 | 12.22550 | 672 ft | 181 kts | 248° |
| 2026-05-04 20:57 | 41.79328 | 12.20955 | 1461 ft | 182 kts | 256° |
| 2026-05-04 20:57 | 41.79239 | 12.19231 | 2038 ft | 194 kts | 265° |
| 2026-05-04 20:58 | 41.79231 | 12.17325 | 2416 ft | 213 kts | 267° |
| 2026-05-04 20:58 | 41.79250 | 12.15248 | 2823 ft | 234 kts | 266° |
| 2026-05-04 20:58 | 41.79199 | 12.12967 | 3317 ft | 255 kts | 264° |
| 2026-05-04 20:58 | 41.79113 | 12.10556 | 4122 ft | 262 kts | 264° |
| 2026-05-04 20:59 | 41.79040 | 12.08091 | 5023 ft | 266 kts | 265° |
| 2026-05-04 20:59 | 41.79012 | 12.05590 | 5907 ft | 270 kts | 266° |
| 2026-05-04 20:59 | 41.79007 | 12.03069 | 6800 ft | 272 kts | 267° |
| 2026-05-04 20:59 | 41.79009 | 12.00520 | 7655 ft | 274 kts | 268° |
| 2026-05-04 21:00 | 41.79010 | 11.98821 | 8197 ft | 276 kts | 268° |
| 2026-05-04 21:00 | 41.79008 | 11.95382 | 9325 ft | 280 kts | 268° |
| 2026-05-04 21:00 | 41.79002 | 11.92753 | 10140 ft | 284 kts | 268° |
| 2026-05-04 21:00 | 41.78992 | 11.90052 | 10607 ft | 300 kts | 268° |
| 2026-05-04 21:01 | 41.79002 | 11.87149 | 10839 ft | 322 kts | 272° |
| 2026-05-04 21:01 | 41.79208 | 11.85152 | 11182 ft | 331 kts | 281° |
| 2026-05-04 21:01 | 41.79937 | 11.82202 | 11868 ft | 337 kts | 293° |
| 2026-05-04 21:01 | 41.81058 | 11.79504 | 12600 ft | 341 kts | 298° |
| 2026-05-04 21:02 | 41.82276 | 11.76762 | 13369 ft | 343 kts | 298° |
| 2026-05-04 21:02 | 41.83501 | 11.73996 | 14091 ft | 346 kts | 298° |
| 2026-05-04 21:02 | 41.84733 | 11.71208 | 14741 ft | 348 kts | 298° |
| 2026-05-04 21:02 | 41.85976 | 11.68394 | 15370 ft | 351 kts | 298° |
| 2026-05-04 21:03 | 41.87224 | 11.65568 | 16001 ft | 354 kts | 298° |
| 2026-05-04 21:03 | 41.88488 | 11.62710 | 16635 ft | 357 kts | 298° |
| 2026-05-04 21:03 | 41.89789 | 11.59853 | 17257 ft | 361 kts | 302° |
| 2026-05-04 21:03 | 41.91414 | 11.57261 | 17868 ft | 367 kts | 311° |
| 2026-05-04 21:04 | 41.93188 | 11.54765 | 18465 ft | 370 kts | 310° |
| 2026-05-04 21:04 | 41.94946 | 11.52284 | 18986 ft | 373 kts | 310° |
| 2026-05-04 21:04 | 41.96742 | 11.49746 | 19526 ft | 375 kts | 310° |
| 2026-05-04 21:04 | 41.98546 | 11.47190 | 20071 ft | 378 kts | 310° |
| 2026-05-04 21:05 | 42.00363 | 11.44612 | 20617 ft | 381 kts | 310° |
| 2026-05-04 21:05 | 42.02176 | 11.42035 | 21148 ft | 383 kts | 310° |
| 2026-05-04 21:05 | 42.04017 | 11.39419 | 21684 ft | 386 kts | 310° |
| 2026-05-04 21:05 | 42.05868 | 11.36792 | 22213 ft | 389 kts | 310° |
| 2026-05-04 21:06 | 42.07731 | 11.34144 | 22739 ft | 392 kts | 310° |
| 2026-05-04 21:06 | 42.09611 | 11.31467 | 23247 ft | 395 kts | 310° |
| 2026-05-04 21:06 | 42.11504 | 11.28769 | 23734 ft | 397 kts | 310° |
| 2026-05-04 21:06 | 42.13412 | 11.26049 | 24134 ft | 400 kts | 309° |
| 2026-05-04 21:07 | 42.15321 | 11.23318 | 24571 ft | 401 kts | 309° |
| 2026-05-04 21:07 | 42.17239 | 11.20574 | 25050 ft | 403 kts | 309° |
| 2026-05-04 21:07 | 42.19138 | 11.17852 | 25514 ft | 404 kts | 309° |
| 2026-05-04 21:07 | 42.21064 | 11.15089 | 25934 ft | 404 kts | 309° |
| 2026-05-04 21:08 | 42.22991 | 11.12318 | 26342 ft | 405 kts | 308° |
| 2026-05-04 21:08 | 42.24924 | 11.09538 | 26754 ft | 406 kts | 308° |
| 2026-05-04 21:08 | 42.26859 | 11.06757 | 27153 ft | 407 kts | 308° |
| 2026-05-04 21:08 | 42.28801 | 11.03967 | 27557 ft | 408 kts | 308° |
| 2026-05-04 21:09 | 42.30742 | 11.01176 | 27946 ft | 408 kts | 308° |
| 2026-05-04 21:09 | 42.32691 | 10.98364 | 28324 ft | 409 kts | 308° |
| 2026-05-04 21:09 | 42.34634 | 10.95555 | 28701 ft | 410 kts | 308° |
| 2026-05-04 21:09 | 42.36587 | 10.92732 | 29063 ft | 411 kts | 307° |
| 2026-05-04 21:10 | 42.38546 | 10.89902 | 29420 ft | 412 kts | 307° |
| 2026-05-04 21:10 | 42.40510 | 10.87065 | 29769 ft | 413 kts | 307° |
| 2026-05-04 21:10 | 42.42463 | 10.84234 | 30051 ft | 413 kts | 307° |
| 2026-05-04 21:10 | 42.44385 | 10.81452 | 30106 ft | 402 kts | 307° |
| 2026-05-04 21:11 | 42.48132 | 10.76053 | 30085 ft | 389 kts | 307° |
| 2026-05-04 21:11 | 42.51813 | 10.70694 | 30110 ft | 387 kts | 307° |
| 2026-05-04 21:12 | 42.55480 | 10.65330 | 30091 ft | 388 kts | 307° |
| 2026-05-04 21:12 | 42.59164 | 10.59958 | 30086 ft | 389 kts | 307° |
| 2026-05-04 21:13 | 42.62851 | 10.54574 | 30083 ft | 390 kts | 307° |
| 2026-05-04 21:13 | 42.66544 | 10.49162 | 30077 ft | 390 kts | 307° |
| 2026-05-04 21:14 | 42.70217 | 10.43775 | 30067 ft | 391 kts | 307° |
| 2026-05-04 21:14 | 42.74257 | 10.38748 | 30062 ft | 402 kts | 320° |
| 2026-05-04 21:15 | 42.79182 | 10.34983 | 30060 ft | 407 kts | 324° |
| 2026-05-04 21:15 | 42.84151 | 10.31251 | 30057 ft | 408 kts | 324° |
| 2026-05-04 21:16 | 42.89127 | 10.27485 | 30062 ft | 410 kts | 324° |
| 2026-05-04 21:16 | 42.94080 | 10.23738 | 30053 ft | 409 kts | 324° |
| 2026-05-04 21:17 | 42.99068 | 10.19963 | 30045 ft | 410 kts | 324° |
| 2026-05-04 21:17 | 43.04067 | 10.16157 | 30054 ft | 412 kts | 324° |
| 2026-05-04 21:18 | 43.09087 | 10.12340 | 30054 ft | 413 kts | 325° |
| 2026-05-04 21:18 | 43.14085 | 10.08536 | 29769 ft | 406 kts | 325° |
| 2026-05-04 21:19 | 43.16541 | 10.06663 | 29490 ft | 402 kts | 325° |
| 2026-05-04 21:19 | 43.18979 | 10.04799 | 29215 ft | 400 kts | 325° |
| 2026-05-04 21:19 | 43.21394 | 10.02953 | 28826 ft | 394 kts | 325° |
| 2026-05-04 21:19 | 43.23781 | 10.01128 | 28360 ft | 391 kts | 325° |
| 2026-05-04 21:20 | 43.26144 | 9.99319 | 27910 ft | 387 kts | 325° |
| 2026-05-04 21:20 | 43.28459 | 9.97547 | 27474 ft | 384 kts | 326° |
| 2026-05-04 21:20 | 43.30789 | 9.95761 | 27035 ft | 381 kts | 326° |
| 2026-05-04 21:20 | 43.33093 | 9.93992 | 26612 ft | 378 kts | 326° |
| 2026-05-04 21:21 | 43.35377 | 9.92236 | 26194 ft | 375 kts | 326° |
| 2026-05-04 21:21 | 43.37652 | 9.90484 | 25761 ft | 373 kts | 326° |
| 2026-05-04 21:21 | 43.39901 | 9.88752 | 25335 ft | 371 kts | 326° |
| 2026-05-04 21:21 | 43.42147 | 9.87015 | 24899 ft | 369 kts | 326° |
| 2026-05-04 21:22 | 43.44386 | 9.85281 | 24457 ft | 369 kts | 326° |
| 2026-05-04 21:22 | 43.46619 | 9.83554 | 24010 ft | 368 kts | 327° |
| 2026-05-04 21:22 | 43.48855 | 9.81828 | 23538 ft | 368 kts | 327° |
| 2026-05-04 21:22 | 43.51082 | 9.80109 | 23040 ft | 366 kts | 327° |
| 2026-05-04 21:23 | 43.53308 | 9.78393 | 22577 ft | 365 kts | 327° |
| 2026-05-04 21:23 | 43.55519 | 9.76684 | 22126 ft | 364 kts | 327° |
| 2026-05-04 21:23 | 43.57721 | 9.74976 | 21678 ft | 363 kts | 327° |
| 2026-05-04 21:23 | 43.59925 | 9.73263 | 21236 ft | 361 kts | 327° |
| 2026-05-04 21:24 | 43.62081 | 9.71588 | 20802 ft | 360 kts | 327° |
| 2026-05-04 21:24 | 43.64293 | 9.69868 | 20345 ft | 359 kts | 327° |
| 2026-05-04 21:24 | 43.66469 | 9.68178 | 19919 ft | 358 kts | 328° |
| 2026-05-04 21:24 | 43.68635 | 9.66494 | 19490 ft | 357 kts | 327° |
| 2026-05-04 21:25 | 43.70768 | 9.64833 | 19058 ft | 356 kts | 327° |
| 2026-05-04 21:25 | 43.72921 | 9.63148 | 18634 ft | 355 kts | 327° |
| 2026-05-04 21:25 | 43.75069 | 9.61462 | 18184 ft | 354 kts | 327° |
| 2026-05-04 21:25 | 43.77210 | 9.59784 | 17744 ft | 352 kts | 327° |
| 2026-05-04 21:26 | 43.79337 | 9.58121 | 17317 ft | 350 kts | 327° |
| 2026-05-04 21:26 | 43.81458 | 9.56467 | 16908 ft | 348 kts | 327° |
| 2026-05-04 21:26 | 43.83561 | 9.54828 | 16499 ft | 346 kts | 327° |
| 2026-05-04 21:26 | 43.85625 | 9.53218 | 16109 ft | 344 kts | 327° |
| 2026-05-04 21:27 | 43.87709 | 9.51584 | 15698 ft | 343 kts | 327° |
| 2026-05-04 21:27 | 43.89787 | 9.49963 | 15304 ft | 341 kts | 328° |
| 2026-05-04 21:27 | 43.91857 | 9.48352 | 14911 ft | 340 kts | 328° |
| 2026-05-04 21:27 | 43.93908 | 9.46754 | 14523 ft | 338 kts | 328° |
| 2026-05-04 21:28 | 43.95955 | 9.45157 | 14126 ft | 337 kts | 328° |
| 2026-05-04 21:28 | 43.98001 | 9.43559 | 13691 ft | 337 kts | 328° |
| 2026-05-04 21:28 | 44.00043 | 9.41958 | 13217 ft | 336 kts | 328° |
| 2026-05-04 21:28 | 44.02078 | 9.40357 | 12754 ft | 336 kts | 328° |
| 2026-05-04 21:29 | 44.04105 | 9.38754 | 12297 ft | 335 kts | 328° |
| 2026-05-04 21:29 | 44.06126 | 9.37143 | 11839 ft | 334 kts | 328° |
| 2026-05-04 21:29 | 44.08140 | 9.35530 | 11385 ft | 334 kts | 328° |
| 2026-05-04 21:30 | 44.09600 | 9.34353 | 11075 ft | 333 kts | 328° |
| 2026-05-04 21:30 | 44.11592 | 9.32743 | 10641 ft | 331 kts | 328° |
| 2026-05-04 21:30 | 44.13559 | 9.31147 | 10215 ft | 331 kts | 328° |
| 2026-05-04 21:30 | 44.15544 | 9.29527 | 9775 ft | 330 kts | 328° |
| 2026-05-04 21:31 | 44.19366 | 9.26372 | 8817 ft | 307 kts | 328° |
| 2026-05-04 21:31 | 44.21158 | 9.24881 | 8375 ft | 298 kts | 328° |
| 2026-05-04 21:31 | 44.22917 | 9.23396 | 7917 ft | 293 kts | 326° |
| 2026-05-04 21:32 | 44.24525 | 9.21651 | 7222 ft | 294 kts | 319° |
| 2026-05-04 21:32 | 44.26091 | 9.19790 | 6467 ft | 296 kts | 319° |
| 2026-05-04 21:32 | 44.27653 | 9.17905 | 5664 ft | 297 kts | 319° |
| 2026-05-04 21:32 | 44.29199 | 9.16029 | 5138 ft | 289 kts | 319° |
| 2026-05-04 21:33 | 44.30697 | 9.14207 | 4741 ft | 283 kts | 319° |
| 2026-05-04 21:33 | 44.32151 | 9.12442 | 4364 ft | 270 kts | 320° |
| 2026-05-04 21:33 | 44.33536 | 9.10765 | 4017 ft | 256 kts | 320° |
| 2026-05-04 21:33 | 44.34851 | 9.09170 | 3693 ft | 247 kts | 319° |
| 2026-05-04 21:34 | 44.35875 | 9.07320 | 3388 ft | 245 kts | 293° |
| 2026-05-04 21:34 | 44.36424 | 9.05110 | 3058 ft | 236 kts | 287° |
| 2026-05-04 21:34 | 44.36919 | 9.02969 | 2738 ft | 227 kts | 288° |
| 2026-05-04 21:34 | 44.37392 | 9.00914 | 2423 ft | 216 kts | 288° |
| 2026-05-04 21:35 | 44.37834 | 8.98994 | 2164 ft | 200 kts | 288° |
| 2026-05-04 21:35 | 44.38247 | 8.97198 | 1855 ft | 187 kts | 288° |
| 2026-05-04 21:35 | 44.38627 | 8.95542 | 1601 ft | 171 kts | 288° |
| 2026-05-04 21:35 | 44.39029 | 8.94029 | 1271 ft | 163 kts | 294° |
| 2026-05-04 21:36 | 44.39493 | 8.92616 | 944 ft | 157 kts | 292° |
| 2026-05-04 21:36 | 44.39817 | 8.91221 | 666 ft | 150 kts | 285° |
| 2026-05-04 21:36 | 44.40096 | 8.89812 | 546 ft | 150 kts | 283° |
| 2026-05-04 21:36 | 44.40376 | 8.88398 | 395 ft | 151 kts | 285° |
| 2026-05-04 21:37 | 44.40661 | 8.86983 | 244 ft | 152 kts | 282° |
| 2026-05-04 21:37 | 44.40930 | 8.85554 | 55 ft | 152 kts | 284° |
| 2026-05-04 21:37 | 44.41189 | 8.84202 | 24 ft | 126 kts | 284° |
| 2026-05-04 21:37 | 44.41373 | 8.83285 | 21 ft | 53 kts | 286° |
| 2026-05-04 21:38 | 44.41485 | 8.83093 | 19 ft | 15 kts | 344° |
| 2026-05-04 21:38 | 44.41549 | 8.83171 | 19 ft | 14 kts | 88° |
| 2026-05-04 21:38 | 44.41522 | 8.83301 | 19 ft | 14 kts | 107° |
| 2026-05-04 21:38 | 44.41491 | 8.83437 | 19 ft | 15 kts | 108° |
| 2026-05-04 21:39 | 44.41467 | 8.83586 | 20 ft | 16 kts | 104° |
| 2026-05-04 21:39 | 44.41438 | 8.83744 | 19 ft | 18 kts | 104° |
| 2026-05-04 21:39 | 44.41404 | 8.83917 | 19 ft | 17 kts | 106° |
| 2026-05-04 21:39 | 44.41370 | 8.84085 | 22 ft | 19 kts | 104° |
| 2026-05-04 21:40 | 44.41335 | 8.84265 | 20 ft | 20 kts | 105° |
| 2026-05-04 21:40 | 44.41322 | 8.84411 | 20 ft | 15 kts | 69° |
| 2026-05-04 21:40 | 44.41387 | 8.84533 | 20 ft | 17 kts | 52° |
| 2026-05-04 21:40 | 44.41405 | 8.84685 | 20 ft | 16 kts | 105° |
| 2026-05-04 21:41 | 44.41382 | 8.84805 | 23 ft | 12 kts | 104° |
| 2026-05-04 21:41 | 44.41381 | 8.84898 | 20 ft | 8 kts | 38° |
| 2026-05-04 21:41 | 44.41399 | 8.84949 | 20 ft | 6 kts | 104° |
| 2026-05-04 21:41 | 44.41385 | 8.84947 | 20 ft | 3 kts | 231° |
| 2026-05-04 21:42 | 44.41395 | 8.84919 | 20 ft | 2 kts | 12° |
| 2026-05-04 21:42 | 44.41413 | 8.84927 | 20 ft | 8 kts | 24° |
| 2026-05-04 21:42 | 44.41425 | 8.84940 | 20 ft | 0 kts | 35° |